Time;durP1;ratioP1;P1;durP2;ratioP2;P2;SDS_P1;SDS_P2;PMS_P1;PMS_P2;Temp;Humidity;BMP_temperature;BMP_pressure;BME280_temperature;BME280_humidity;BME280_pressure;Samples;Min_cycle;Max_cycle;Signal;HPM_P1;HPM_P2
2022/08/27 00:00:52;;;;;;;1.23;0.75;;;19.80;99.90;;;;;;5064455;28;20045;-69
2022/08/27 00:03:17;;;;;;;1.63;0.80;;;19.80;99.90;;;;;;5063635;28;20451;-72
2022/08/27 00:05:44;;;;;;;2.38;0.98;;;19.80;99.90;;;;;;5064810;28;20028;-69
2022/08/27 00:08:12;;;;;;;2.22;1.25;;;19.80;99.90;;;;;;5064444;28;20113;-72
2022/08/27 00:10:38;;;;;;;1.98;0.93;;;19.80;99.90;;;;;;5061832;28;20415;-70
2022/08/27 00:13:03;;;;;;;7.05;1.48;;;19.70;99.90;;;;;;5064576;28;20067;-71
2022/08/27 00:15:30;;;;;;;2.90;0.80;;;19.70;99.90;;;;;;5063687;28;20021;-71
2022/08/27 00:17:56;;;;;;;8.27;1.13;;;19.70;99.90;;;;;;5064483;28;20504;-70
2022/08/27 00:20:24;;;;;;;2.60;1.15;;;19.70;99.90;;;;;;5062759;28;20093;-72
2022/08/27 00:22:51;;;;;;;5.55;0.98;;;19.60;99.90;;;;;;5063935;28;20045;-70
2022/08/27 00:25:17;;;;;;;8.60;1.00;;;19.60;99.90;;;;;;5063963;28;20017;-71
2022/08/27 00:27:43;;;;;;;0.82;0.70;;;19.60;99.90;;;;;;5062761;28;20081;-70
2022/08/27 00:30:13;;;;;;;3.00;1.08;;;19.60;99.90;;;;;;5063777;28;20064;-72
2022/08/27 00:32:39;;;;;;;0.85;0.60;;;19.60;99.90;;;;;;5063533;28;20127;-70
2022/08/27 00:35:06;;;;;;;3.15;1.10;;;19.60;99.90;;;;;;5063936;28;20033;-71
2022/08/27 00:37:33;;;;;;;3.58;1.15;;;19.50;99.90;;;;;;5064096;28;20029;-72
2022/08/27 00:39:59;;;;;;;0.90;0.82;;;19.50;99.90;;;;;;5062209;28;20032;-72
2022/08/27 00:42:25;;;;;;;1.08;0.50;;;19.50;99.90;;;;;;5063524;28;20067;-68
2022/08/27 00:44:51;;;;;;;1.65;0.80;;;19.50;99.90;;;;;;5063382;28;20033;-72
2022/08/27 00:47:22;;;;;;;1.65;0.95;;;19.50;99.90;;;;;;5064111;28;20025;-71
2022/08/27 00:49:54;;;;;;;1.17;0.93;;;19.50;99.90;;;;;;5063387;28;20543;-72
2022/08/27 00:52:28;;;;;;;1.60;0.82;;;19.50;99.90;;;;;;5063511;28;20037;-71
2022/08/27 00:55:08;;;;;;;1.98;1.00;;;19.50;99.90;;;;;;5063688;28;20029;-72
2022/08/27 00:57:37;;;;;;;2.45;1.10;;;19.40;99.90;;;;;;5063267;28;20055;-72
2022/08/27 01:00:07;;;;;;;2.47;0.80;;;19.40;99.90;;;;;;5063308;28;20033;-73
2022/08/27 01:02:33;;;;;;;12.73;1.42;;;19.40;99.90;;;;;;5062938;28;20037;-70
2022/08/27 01:05:04;;;;;;;2.92;1.10;;;19.40;99.90;;;;;;5063261;28;20507;-70
2022/08/27 01:07:35;;;;;;;1.67;1.00;;;19.40;99.90;;;;;;5063568;28;20028;-73
2022/08/27 01:10:04;;;;;;;7.43;1.02;;;19.40;99.90;;;;;;5062841;28;20036;-71
2022/08/27 01:12:33;;;;;;;2.58;0.93;;;19.40;99.90;;;;;;5060527;28;20030;-73
2022/08/27 01:15:00;;;;;;;0.82;0.63;;;19.40;99.90;;;;;;5061973;28;20105;-70
2022/08/27 01:17:26;;;;;;;2.58;1.27;;;19.40;99.90;;;;;;5061336;28;20037;-71
2022/08/27 01:19:56;;;;;;;5.60;1.38;;;19.40;99.90;;;;;;5062986;28;20025;-70
2022/08/27 01:22:28;;;;;;;8.77;1.17;;;19.30;99.90;;;;;;5061611;28;20028;-71
2022/08/27 01:24:57;;;;;;;11.30;0.73;;;19.30;99.90;;;;;;5062674;28;20112;-72
2022/08/27 01:27:26;;;;;;;2.70;1.25;;;19.30;99.90;;;;;;5062600;28;20554;-69
2022/08/27 01:29:52;;;;;;;2.22;1.05;;;19.30;99.90;;;;;;5062383;28;20029;-69
2022/08/27 01:32:21;;;;;;;0.70;0.70;;;19.30;99.90;;;;;;5062352;28;20029;-70
2022/08/27 01:34:48;;;;;;;1.60;0.70;;;19.30;99.90;;;;;;5062837;28;20033;-70
2022/08/27 01:37:15;;;;;;;1.48;0.85;;;19.30;99.90;;;;;;5063010;28;20043;-70
2022/08/27 01:39:41;;;;;;;5.70;0.98;;;19.30;99.90;;;;;;5062146;28;20069;-71
2022/08/27 01:42:21;;;;;;;5.05;0.63;;;19.40;99.90;;;;;;5062341;28;20120;-70
2022/08/27 01:44:48;;;;;;;1.50;0.80;;;19.30;99.90;;;;;;5061416;28;20773;-70
2022/08/27 01:47:15;;;;;;;2.88;1.25;;;19.30;99.90;;;;;;5062278;28;20029;-71
2022/08/27 01:49:41;;;;;;;3.47;1.08;;;19.30;99.90;;;;;;5062289;28;20021;-72
2022/08/27 01:52:07;;;;;;;3.35;1.33;;;19.30;99.90;;;;;;5062446;28;20085;-70
2022/08/27 01:54:34;;;;;;;4.93;1.33;;;19.30;99.90;;;;;;5062948;28;20033;-71
2022/08/27 01:57:00;;;;;;;3.33;1.13;;;19.30;99.90;;;;;;5062007;28;20025;-71
2022/08/27 01:59:26;;;;;;;5.82;1.55;;;19.30;99.90;;;;;;5062193;28;20746;-70
2022/08/27 02:01:54;;;;;;;0.73;0.57;;;19.30;99.90;;;;;;5060636;28;20146;-73
2022/08/27 02:04:21;;;;;;;2.70;1.10;;;19.30;99.90;;;;;;5062245;28;20072;-71
2022/08/27 02:06:46;;;;;;;1.35;0.95;;;19.30;99.90;;;;;;5061794;28;20115;-71
2022/08/27 02:09:15;;;;;;;4.90;1.33;;;19.30;99.90;;;;;;5062244;28;20053;-69
2022/08/27 02:11:41;;;;;;;2.60;1.20;;;19.30;99.90;;;;;;5061478;28;20021;-71
2022/08/27 02:14:08;;;;;;;1.63;1.08;;;19.30;99.90;;;;;;5060736;28;20127;-71
2022/08/27 02:16:35;;;;;;;3.25;1.85;;;19.20;99.90;;;;;;5061817;28;20076;-70
2022/08/27 02:19:03;;;;;;;7.50;1.38;;;19.20;99.90;;;;;;5060506;28;20037;-71
2022/08/27 02:21:28;;;;;;;4.60;1.38;;;19.20;99.90;;;;;;5061985;28;20033;-71
2022/08/27 02:23:54;;;;;;;5.85;1.52;;;19.30;99.90;;;;;;5062353;28;20091;-69
2022/08/27 02:26:20;;;;;;;25.30;1.83;;;19.30;99.90;;;;;;5061536;28;20084;-72
2022/08/27 02:28:46;;;;;;;8.70;1.73;;;19.30;99.90;;;;;;5061832;28;20127;-70
2022/08/27 02:31:11;;;;;;;2.58;1.25;;;19.30;99.90;;;;;;5061810;28;20480;-70
2022/08/27 02:33:37;;;;;;;3.25;1.88;;;19.30;99.90;;;;;;5061114;28;20029;-72
2022/08/27 02:36:03;;;;;;;8.50;1.58;;;19.30;99.90;;;;;;5062288;28;20016;-73
2022/08/27 02:38:29;;;;;;;1.42;0.60;;;19.30;99.90;;;;;;5060743;28;20039;-69
2022/08/27 02:40:55;;;;;;;3.05;1.52;;;19.40;99.90;;;;;;5060795;28;20064;-73
2022/08/27 02:43:21;;;;;;;1.63;0.98;;;19.30;99.90;;;;;;5061821;28;20048;-70
2022/08/27 02:45:47;;;;;;;4.43;1.55;;;19.30;99.90;;;;;;5060343;28;20036;-71
2022/08/27 02:48:13;;;;;;;1.73;0.98;;;19.30;99.90;;;;;;5061382;28;20037;-70
2022/08/27 02:50:39;;;;;;;4.00;0.93;;;19.30;99.90;;;;;;5061990;28;20021;-69
2022/08/27 02:53:05;;;;;;;11.48;1.45;;;19.30;99.90;;;;;;5061673;28;20033;-71
2022/08/27 02:55:32;;;;;;;3.75;1.13;;;19.30;99.90;;;;;;5061379;28;20029;-71
2022/08/27 02:57:58;;;;;;;14.93;1.42;;;19.30;99.90;;;;;;5061482;28;20087;-73
2022/08/27 03:00:24;;;;;;;1.13;0.60;;;19.30;99.90;;;;;;5059805;28;20025;-70
2022/08/27 03:02:51;;;;;;;4.68;1.70;;;19.30;99.90;;;;;;5061238;28;20044;-71
2022/08/27 03:05:17;;;;;;;9.75;1.77;;;19.30;99.90;;;;;;5060939;28;20021;-70
2022/08/27 03:07:43;;;;;;;6.85;1.05;;;19.30;99.90;;;;;;5061559;28;20025;-71
2022/08/27 03:10:12;;;;;;;2.63;1.35;;;19.30;99.90;;;;;;5059552;28;20052;-71
2022/08/27 03:12:40;;;;;;;2.65;1.30;;;19.20;99.90;;;;;;5061614;28;20037;-73
2022/08/27 03:15:09;;;;;;;8.05;1.48;;;19.20;99.90;;;;;;5060564;28;20056;-70
2022/08/27 03:20:19;;;;;;;3.17;1.20;;;19.20;99.90;;;;;;5059882;28;20058;-73
2022/08/27 03:22:45;;;;;;;3.10;0.90;;;19.20;99.90;;;;;;5061076;28;20057;-71
2022/08/27 03:25:11;;;;;;;10.07;1.23;;;19.20;99.90;;;;;;5061277;28;20021;-70
2022/08/27 03:27:38;;;;;;;2.13;0.95;;;19.10;99.90;;;;;;5060125;28;20021;-71
2022/08/27 03:30:14;;;;;;;7.88;0.80;;;19.20;99.90;;;;;;5059778;28;20032;-71
2022/08/27 03:32:41;;;;;;;1.45;0.88;;;19.20;99.90;;;;;;5060559;28;20035;-70
2022/08/27 03:35:09;;;;;;;2.15;0.73;;;19.20;99.90;;;;;;5061518;28;20021;-70
2022/08/27 03:37:36;;;;;;;2.35;1.00;;;19.20;99.90;;;;;;5060683;28;20490;-69
2022/08/27 03:40:05;;;;;;;5.15;1.83;;;19.20;99.90;;;;;;5060757;28;20099;-72
2022/08/27 03:42:30;;;;;;;2.63;1.05;;;19.20;99.90;;;;;;5061362;28;20041;-71
2022/08/27 03:44:56;;;;;;;1.50;1.15;;;19.10;99.90;;;;;;5061047;28;20111;-70
2022/08/27 03:47:22;;;;;;;8.98;1.83;;;19.10;99.90;;;;;;5064652;28;20037;-71
2022/08/27 03:49:48;;;;;;;1.73;0.95;;;19.10;99.90;;;;;;5064804;28;20108;-71
2022/08/27 03:52:14;;;;;;;0.47;0.45;;;19.10;99.90;;;;;;5063554;28;20045;-72
2022/08/27 03:54:40;;;;;;;3.30;0.77;;;19.10;99.90;;;;;;5064934;28;20033;-72
2022/08/27 03:57:07;;;;;;;3.50;1.42;;;19.10;99.90;;;;;;5064065;28;20029;-72
2022/08/27 03:59:34;;;;;;;3.22;0.73;;;19.00;99.90;;;;;;5064900;28;20033;-71
2022/08/27 04:02:01;;;;;;;1.55;0.93;;;19.10;99.90;;;;;;5064787;28;20028;-69
2022/08/27 04:04:27;;;;;;;1.77;0.73;;;19.10;99.90;;;;;;5064447;28;20017;-71
2022/08/27 04:06:52;;;;;;;13.82;1.48;;;19.10;99.90;;;;;;5064368;28;20036;-70
2022/08/27 04:09:18;;;;;;;1.15;0.63;;;19.10;99.90;;;;;;5064419;28;20017;-71
2022/08/27 04:11:44;;;;;;;6.75;1.65;;;19.20;99.90;;;;;;5064098;28;20036;-68
2022/08/27 04:14:09;;;;;;;5.68;1.88;;;19.10;99.90;;;;;;5064470;28;20079;-71
2022/08/27 04:16:35;;;;;;;2.67;1.20;;;19.10;99.90;;;;;;5063837;28;20033;-70
2022/08/27 04:19:02;;;;;;;5.68;1.17;;;19.10;99.90;;;;;;5064297;28;20033;-70
2022/08/27 04:21:28;;;;;;;10.57;1.95;;;19.10;99.90;;;;;;5062939;28;20037;-71
2022/08/27 04:23:55;;;;;;;6.07;0.77;;;19.10;99.90;;;;;;5063780;28;20029;-71
2022/08/27 04:26:21;;;;;;;2.30;0.95;;;19.10;99.90;;;;;;5063881;28;20100;-71
2022/08/27 04:28:47;;;;;;;2.13;0.85;;;19.10;99.90;;;;;;5064021;28;20037;-71
2022/08/27 04:31:13;;;;;;;5.95;1.38;;;19.00;99.90;;;;;;5063874;28;20032;-72
2022/08/27 04:33:39;;;;;;;4.13;1.50;;;19.00;99.90;;;;;;5062206;28;20047;-70
2022/08/27 04:36:08;;;;;;;4.25;1.02;;;19.10;99.90;;;;;;5058075;28;20037;-74
2022/08/27 04:38:37;;;;;;;5.05;1.33;;;19.00;99.90;;;;;;5062173;28;20076;-72
2022/08/27 04:41:21;;;;;;;1.75;0.73;;;19.10;99.90;;;;;;5061894;28;20053;-74
2022/08/27 04:44:01;;;;;;;3.05;1.63;;;19.10;99.90;;;;;;5063804;28;20104;-72
2022/08/27 04:46:29;;;;;;;2.13;1.30;;;19.10;99.90;;;;;;5063775;28;20029;-74
2022/08/27 04:48:57;;;;;;;0.98;0.52;;;19.10;99.90;;;;;;5063442;28;20089;-73
2022/08/27 04:51:23;;;;;;;5.03;0.82;;;19.00;99.90;;;;;;5063544;28;20033;-72
2022/08/27 04:53:49;;;;;;;1.73;0.88;;;19.10;99.90;;;;;;5062381;28;20051;-74
2022/08/27 04:56:17;;;;;;;2.83;1.10;;;19.10;99.90;;;;;;5062096;28;20044;-74
2022/08/27 04:58:43;;;;;;;4.07;1.50;;;19.10;99.90;;;;;;5062753;28;20060;-74
2022/08/27 05:01:14;;;;;;;2.42;1.20;;;19.00;99.90;;;;;;5063199;28;20052;-74
2022/08/27 05:03:40;;;;;;;3.78;1.13;;;19.00;99.90;;;;;;5061586;28;20029;-74
2022/08/27 05:06:06;;;;;;;1.73;1.05;;;19.00;99.90;;;;;;5055235;28;20025;-75
2022/08/27 05:08:35;;;;;;;4.72;1.17;;;19.00;99.90;;;;;;5060936;28;20572;-71
2022/08/27 05:11:01;;;;;;;1.85;1.05;;;19.00;99.90;;;;;;5063106;28;20131;-73
2022/08/27 05:13:28;;;;;;;1.73;0.88;;;18.90;99.90;;;;;;5062167;28;20539;-79
2022/08/27 05:16:06;;;;;;;6.15;1.33;;;18.90;99.90;;;;;;5059721;28;20029;-72
2022/08/27 05:18:35;;;;;;;2.22;0.82;;;18.90;99.90;;;;;;5061791;28;20339;-73
2022/08/27 05:21:02;;;;;;;6.22;1.25;;;18.90;99.90;;;;;;5056123;28;20045;-72
2022/08/27 05:23:27;;;;;;;1.50;0.98;;;19.00;99.90;;;;;;5058879;28;20112;-75
2022/08/27 05:25:54;;;;;;;3.58;1.50;;;18.90;99.90;;;;;;5061129;28;20071;-72
2022/08/27 05:28:22;;;;;;;1.63;0.73;;;18.80;99.90;;;;;;5062216;28;20032;-72
2022/08/27 05:30:50;;;;;;;1.65;0.70;;;18.90;99.90;;;;;;5057939;28;20035;-71
2022/08/27 05:33:19;;;;;;;3.85;1.25;;;18.90;99.90;;;;;;5061633;28;20088;-73
2022/08/27 05:35:52;;;;;;;3.13;1.17;;;18.90;99.90;;;;;;5061973;28;20047;-72
2022/08/27 05:38:18;;;;;;;2.75;1.08;;;18.90;99.90;;;;;;5061181;28;20037;-72
2022/08/27 05:40:46;;;;;;;4.82;0.85;;;18.90;99.90;;;;;;5058938;28;20057;-71
2022/08/27 05:43:13;;;;;;;7.40;1.52;;;18.90;99.90;;;;;;5061032;28;20426;-72
2022/08/27 05:45:47;;;;;;;2.47;1.00;;;18.90;99.90;;;;;;5059461;28;20040;-72
2022/08/27 05:48:16;;;;;;;1.90;1.23;;;18.90;99.90;;;;;;5061047;28;20033;-74
2022/08/27 05:50:43;;;;;;;1.23;0.90;;;18.80;99.90;;;;;;5062139;28;20362;-72
2022/08/27 05:53:11;;;;;;;11.05;1.35;;;18.80;99.90;;;;;;5062046;28;20021;-71
2022/08/27 05:55:39;;;;;;;7.45;1.00;;;18.80;99.90;;;;;;5061742;28;20040;-71
2022/08/27 05:58:06;;;;;;;2.03;0.85;;;18.90;99.90;;;;;;5061676;28;20465;-72
2022/08/27 06:03:16;;;;;;;2.20;1.20;;;18.80;99.90;;;;;;5059231;28;20040;-73
2022/08/27 06:05:41;;;;;;;6.38;1.27;;;18.90;99.90;;;;;;5062245;28;20025;-73
2022/08/27 06:08:07;;;;;;;3.60;1.23;;;18.90;99.90;;;;;;5061815;28;20533;-72
2022/08/27 06:10:34;;;;;;;6.90;1.25;;;18.90;99.90;;;;;;5059820;28;20025;-72
2022/08/27 06:13:00;;;;;;;6.32;0.93;;;18.90;99.90;;;;;;5062387;28;20056;-73
2022/08/27 06:15:26;;;;;;;3.20;1.05;;;18.90;99.90;;;;;;5060335;28;20469;-73
2022/08/27 06:17:52;;;;;;;0.93;0.63;;;18.90;99.90;;;;;;5061887;28;20036;-73
2022/08/27 06:20:19;;;;;;;0.80;0.65;;;18.90;99.90;;;;;;5060504;28;20033;-72
2022/08/27 06:22:45;;;;;;;2.83;1.02;;;19.00;99.90;;;;;;5060314;28;20083;-73
2022/08/27 06:25:12;;;;;;;2.65;0.63;;;19.00;99.90;;;;;;5058292;28;20021;-74
2022/08/27 06:27:38;;;;;;;1.85;1.05;;;19.00;99.90;;;;;;5062003;28;20029;-74
2022/08/27 06:30:03;;;;;;;5.07;1.98;;;19.00;99.90;;;;;;5059309;28;20036;-74
2022/08/27 06:32:30;;;;;;;3.65;1.23;;;19.00;99.90;;;;;;5060784;28;20033;-71
2022/08/27 06:34:55;;;;;;;19.92;1.45;;;19.00;99.90;;;;;;5062160;28;20104;-71
2022/08/27 06:37:21;;;;;;;1.58;0.60;;;19.10;99.90;;;;;;5057018;28;20049;-72
2022/08/27 06:39:46;;;;;;;3.00;0.85;;;19.10;99.90;;;;;;5059140;28;20067;-71
2022/08/27 06:42:18;;;;;;;8.55;1.38;;;19.10;99.90;;;;;;5060314;28;20051;-72
2022/08/27 06:44:43;;;;;;;0.73;0.60;;;19.10;99.90;;;;;;5061341;28;20082;-72
2022/08/27 06:47:10;;;;;;;5.05;1.27;;;19.10;99.90;;;;;;5060235;28;20021;-73
2022/08/27 06:49:39;;;;;;;1.60;0.90;;;19.20;99.90;;;;;;5060124;28;20489;-73
2022/08/27 06:52:05;;;;;;;20.80;1.77;;;19.30;99.90;;;;;;5060419;28;20040;-75
2022/08/27 06:54:31;;;;;;;3.80;1.30;;;19.10;99.90;;;;;;5060434;28;20025;-70
2022/08/27 06:56:59;;;;;;;5.40;1.33;;;19.30;99.90;;;;;;5057700;28;20044;-72
2022/08/27 06:59:25;;;;;;;2.90;1.10;;;19.20;99.90;;;;;;5058842;28;20062;-72
2022/08/27 07:01:51;;;;;;;2.08;1.38;;;19.40;99.90;;;;;;5058629;28;20075;-74
2022/08/27 07:04:21;;;;;;;1.40;0.88;;;19.40;99.90;;;;;;5054790;28;20084;-71
2022/08/27 07:06:49;;;;;;;4.13;0.98;;;19.40;99.90;;;;;;5059699;28;20017;-74
2022/08/27 07:09:15;;;;;;;9.80;0.90;;;19.40;99.90;;;;;;5057854;28;20060;-71
2022/08/27 07:11:41;;;;;;;4.38;1.38;;;19.40;99.90;;;;;;5057084;28;20017;-71
2022/08/27 07:14:09;;;;;;;2.47;1.15;;;19.50;99.90;;;;;;5061408;28;20134;-72
2022/08/27 07:16:35;;;;;;;2.50;0.73;;;19.50;99.90;;;;;;5061606;28;20051;-74
2022/08/27 07:19:04;;;;;;;3.78;1.05;;;19.50;99.90;;;;;;5062539;28;20590;-74
2022/08/27 07:21:31;;;;;;;6.18;1.17;;;19.50;99.90;;;;;;5061093;28;20060;-72
2022/08/27 07:23:58;;;;;;;11.15;1.67;;;19.50;99.90;;;;;;5062053;28;20108;-72
2022/08/27 07:26:24;;;;;;;6.30;1.35;;;19.40;99.90;;;;;;5064326;28;20056;-72
2022/08/27 07:28:52;;;;;;;5.07;1.08;;;19.50;99.90;;;;;;5063520;28;20036;-73
2022/08/27 07:31:23;;;;;;;2.30;1.13;;;19.50;99.90;;;;;;5061588;28;20025;-74
2022/08/27 07:33:51;;;;;;;4.93;1.23;;;19.50;99.90;;;;;;5061126;28;20033;-72
2022/08/27 07:36:19;;;;;;;5.82;1.60;;;19.50;99.90;;;;;;5059490;28;20420;-74
2022/08/27 07:38:44;;;;;;;4.90;0.98;;;19.60;99.90;;;;;;5064796;28;20025;-73
2022/08/27 07:41:12;;;;;;;11.85;1.38;;;19.60;99.90;;;;;;5062654;28;20063;-73
2022/08/27 07:46:23;;;;;;;6.35;1.88;;;19.70;99.90;;;;;;5064585;28;20188;-70
2022/08/27 07:48:49;;;;;;;4.53;1.40;;;19.70;99.90;;;;;;5063519;28;20082;-70
2022/08/27 07:51:18;;;;;;;10.88;1.95;;;19.70;99.90;;;;;;5062926;28;20040;-72
2022/08/27 07:53:44;;;;;;;4.43;1.00;;;19.80;99.90;;;;;;5064490;28;20072;-73
2022/08/27 07:56:11;;;;;;;8.02;1.00;;;19.80;99.90;;;;;;5061290;28;20021;-71
2022/08/27 07:58:37;;;;;;;3.17;1.15;;;19.90;99.90;;;;;;5064546;28;20037;-72
2022/08/27 08:01:04;;;;;;;2.08;1.02;;;19.90;99.90;;;;;;5062590;28;20028;-74
2022/08/27 08:03:30;;;;;;;2.47;1.00;;;20.00;99.90;;;;;;5064474;28;20120;-71
2022/08/27 08:05:56;;;;;;;1.67;0.70;;;20.00;99.90;;;;;;5063904;28;20060;-71
2022/08/27 08:08:23;;;;;;;11.15;1.20;;;20.00;99.90;;;;;;5063763;28;20112;-71
2022/08/27 08:10:48;;;;;;;7.18;0.93;;;20.00;99.90;;;;;;5063269;28;20017;-72
2022/08/27 08:13:17;;;;;;;2.13;0.75;;;20.00;99.90;;;;;;5063066;28;20029;-71
2022/08/27 08:15:45;;;;;;;2.20;0.93;;;20.00;99.90;;;;;;5059987;28;20013;-71
2022/08/27 08:18:13;;;;;;;3.10;1.40;;;20.10;99.90;;;;;;5061176;28;20033;-72
2022/08/27 08:20:39;;;;;;;2.15;1.02;;;20.10;99.90;;;;;;5050809;28;20019;-75
2022/08/27 08:23:05;;;;;;;2.92;1.48;;;20.00;99.90;;;;;;5054185;28;20045;-72
2022/08/27 08:25:33;;;;;;;10.93;1.30;;;20.00;99.90;;;;;;5062971;28;20025;-72
2022/08/27 08:27:59;;;;;;;6.38;1.52;;;20.00;99.90;;;;;;5059276;28;20033;-73
2022/08/27 08:30:26;;;;;;;13.50;1.10;;;19.90;99.90;;;;;;5060232;28;20032;-70
2022/08/27 08:32:52;;;;;;;3.28;1.00;;;20.00;99.90;;;;;;5061093;28;20386;-72
2022/08/27 08:35:17;;;;;;;3.20;1.02;;;20.00;99.90;;;;;;5063060;28;20032;-71
2022/08/27 08:37:48;;;;;;;0.60;0.60;;;20.00;99.90;;;;;;5061507;28;20029;-72
2022/08/27 08:40:29;;;;;;;2.08;0.73;;;20.00;99.90;;;;;;5062072;28;20132;-73
2022/08/27 08:42:55;;;;;;;3.72;0.98;;;20.00;99.90;;;;;;5063168;28;20218;-70
2022/08/27 08:45:26;;;;;;;2.97;1.27;;;19.90;99.90;;;;;;5062967;28;20085;-72
2022/08/27 08:48:01;;;;;;;3.53;1.27;;;20.00;99.90;;;;;;5062399;28;20377;-72
2022/08/27 08:51:01;;;;;;;3.03;1.27;;;20.00;99.90;;;;;;5062882;28;20481;-73
2022/08/27 08:53:33;;;;;;;5.07;1.25;;;20.00;99.90;;;;;;5051737;28;20045;-70
2022/08/27 08:56:02;;;;;;;1.20;0.63;;;20.00;99.90;;;;;;5063209;28;20619;-72
2022/08/27 08:58:46;;;;;;;4.13;1.40;;;20.00;99.90;;;;;;5059836;28;20061;-70
2022/08/27 09:01:18;;;;;;;13.90;1.75;;;20.00;99.90;;;;;;5062298;28;20493;-71
2022/08/27 09:03:56;;;;;;;2.70;1.02;;;20.00;99.90;;;;;;5063122;28;20021;-71
2022/08/27 09:06:53;;;;;;;2.88;0.88;;;19.90;99.90;;;;;;5060230;28;20104;-70
2022/08/27 09:09:28;;;;;;;1.67;0.90;;;19.90;99.90;;;;;;5060214;28;20049;-72
2022/08/27 09:12:02;;;;;;;1.58;0.68;;;19.90;99.90;;;;;;5056539;28;20028;-72
2022/08/27 09:14:55;;;;;;;8.18;1.40;;;19.90;99.90;;;;;;5053046;28;20040;-71
2022/08/27 09:17:21;;;;;;;8.95;1.35;;;19.90;99.90;;;;;;5060138;28;20075;-73
2022/08/27 09:19:46;;;;;;;5.63;1.35;;;20.00;99.90;;;;;;5058365;28;20025;-71
2022/08/27 09:22:37;;;;;;;5.97;0.80;;;20.10;99.90;;;;;;5056966;28;20142;-73
2022/08/27 09:25:13;;;;;;;7.75;0.70;;;20.10;99.90;;;;;;5062329;28;20028;-73
2022/08/27 09:27:41;;;;;;;2.10;1.05;;;20.10;99.90;;;;;;5061276;28;20025;-74
2022/08/27 09:30:11;;;;;;;10.70;1.10;;;20.10;99.90;;;;;;5060920;28;20036;-71
2022/08/27 09:32:38;;;;;;;3.17;1.60;;;20.10;99.90;;;;;;5062489;28;20086;-71
2022/08/27 09:35:10;;;;;;;8.05;1.50;;;20.10;99.90;;;;;;5061086;28;20029;-74
2022/08/27 09:37:42;;;;;;;1.73;0.77;;;20.10;99.90;;;;;;5062617;28;20028;-73
2022/08/27 09:40:30;;;;;;;3.22;1.17;;;20.10;99.90;;;;;;5061681;28;20061;-72
2022/08/27 09:43:06;;;;;;;2.90;1.13;;;20.20;99.90;;;;;;5058941;28;20037;-72
2022/08/27 09:45:33;;;;;;;3.92;0.77;;;20.20;99.90;;;;;;5061786;28;20100;-71
2022/08/27 09:48:06;;;;;;;0.63;0.60;;;20.20;99.90;;;;;;5058733;28;20037;-71
2022/08/27 09:50:44;;;;;;;2.15;1.00;;;20.20;99.90;;;;;;5061359;28;20113;-71
2022/08/27 09:53:27;;;;;;;2.88;1.00;;;20.30;99.90;;;;;;5060424;28;20037;-70
2022/08/27 09:56:08;;;;;;;3.35;1.02;;;20.40;99.90;;;;;;5058428;28;20036;-70
2022/08/27 09:58:43;;;;;;;6.45;0.70;;;20.40;99.90;;;;;;5060747;28;20063;-71
2022/08/27 10:01:25;;;;;;;6.35;1.88;;;20.50;99.90;;;;;;5059272;28;20029;-69
2022/08/27 10:04:08;;;;;;;9.38;1.60;;;20.50;99.90;;;;;;5061682;28;20036;-71
2022/08/27 10:06:34;;;;;;;6.80;1.08;;;20.50;99.90;;;;;;5062075;28;20032;-70
2022/08/27 10:09:32;;;;;;;4.80;1.25;;;20.50;99.90;;;;;;5061849;28;20458;-71
2022/08/27 10:12:19;;;;;;;5.07;1.13;;;20.60;99.90;;;;;;5060988;28;20037;-72
2022/08/27 10:14:53;;;;;;;0.77;0.40;;;20.70;99.90;;;;;;5061236;28;20147;-71
2022/08/27 10:17:27;;;;;;;1.45;0.73;;;20.70;99.90;;;;;;5059428;28;20033;-72
2022/08/27 10:20:11;;;;;;;5.03;0.88;;;20.80;99.90;;;;;;5061887;28;20021;-76
2022/08/27 10:23:04;;;;;;;1.65;0.65;;;20.80;99.90;;;;;;5060080;28;20036;-73
2022/08/27 10:25:53;;;;;;;2.90;1.27;;;20.80;99.90;;;;;;5048198;28;20033;-72
2022/08/27 10:28:40;;;;;;;0.80;0.65;;;20.80;99.90;;;;;;5058310;28;20116;-74
2022/08/27 10:31:12;;;;;;;6.82;0.73;;;20.80;99.90;;;;;;5060126;28;20041;-71
2022/08/27 10:34:05;;;;;;;4.80;1.38;;;20.90;99.90;;;;;;5060337;28;20033;-73
2022/08/27 10:36:57;;;;;;;13.85;1.83;;;20.90;99.90;;;;;;5058435;28;20045;-71
2022/08/27 10:39:32;;;;;;;3.05;0.98;;;21.00;99.90;;;;;;5059796;28;20029;-72
2022/08/27 10:42:09;;;;;;;1.42;0.82;;;21.10;99.90;;;;;;5060338;28;20044;-72
2022/08/27 10:45:10;;;;;;;2.55;1.10;;;21.10;99.90;;;;;;5061276;28;20040;-73
2022/08/27 10:48:10;;;;;;;3.85;1.35;;;21.20;99.90;;;;;;5059490;28;20032;-73
2022/08/27 10:50:49;;;;;;;7.43;0.85;;;21.40;99.90;;;;;;5053231;28;20492;-72
2022/08/27 10:53:44;;;;;;;1.65;1.08;;;21.50;99.90;;;;;;5060082;28;20040;-72
2022/08/27 10:56:28;;;;;;;2.47;0.85;;;21.60;99.90;;;;;;5061246;28;20021;-71
2022/08/27 10:59:03;;;;;;;2.75;1.13;;;21.70;99.90;;;;;;5060131;28;20029;-72
2022/08/27 11:01:50;;;;;;;17.63;1.33;;;21.70;99.90;;;;;;5059895;28;20459;-75
2022/08/27 11:04:26;;;;;;;3.15;0.90;;;21.70;99.90;;;;;;5054311;28;20102;-72
2022/08/27 11:07:13;;;;;;;11.32;1.65;;;21.70;99.90;;;;;;5059757;28;20092;-73
2022/08/27 11:09:46;;;;;;;11.27;1.27;;;21.80;99.90;;;;;;5060934;28;20036;-70
2022/08/27 11:12:17;;;;;;;4.43;1.65;;;21.90;99.90;;;;;;5059393;28;20029;-73
2022/08/27 11:14:50;;;;;;;2.35;0.93;;;21.90;99.90;;;;;;5057295;28;20041;-74
2022/08/27 11:17:37;;;;;;;3.97;0.70;;;22.00;99.90;;;;;;5060128;28;20033;-72
2022/08/27 11:20:41;;;;;;;7.80;1.17;;;22.00;99.90;;;;;;5059987;28;20044;-72
2022/08/27 11:23:17;;;;;;;7.53;1.20;;;22.10;99.90;;;;;;5052062;28;20056;-72
2022/08/27 11:25:56;;;;;;;5.20;0.95;;;22.20;99.90;;;;;;5057259;28;20041;-74
2022/08/27 11:28:28;;;;;;;2.08;1.10;;;22.30;99.90;;;;;;5059496;28;20047;-74
2022/08/27 11:31:01;;;;;;;9.55;1.67;;;22.50;99.90;;;;;;5060149;28;20776;-70
2022/08/27 11:33:57;;;;;;;2.38;0.85;;;22.80;99.90;;;;;;5060986;28;20024;-72
2022/08/27 11:36:47;;;;;;;3.40;0.85;;;23.10;99.90;;;;;;5049184;28;20037;-73
2022/08/27 11:39:27;;;;;;;4.18;1.00;;;23.50;99.90;;;;;;5057917;28;20055;-72
2022/08/27 11:42:02;;;;;;;5.72;0.90;;;23.60;99.90;;;;;;5057680;28;20049;-71
2022/08/27 11:44:28;;;;;;;2.15;0.63;;;23.60;99.90;;;;;;5054831;28;20096;-73
2022/08/27 11:47:17;;;;;;;5.70;0.85;;;23.70;99.90;;;;;;5060826;28;20101;-71
2022/08/27 11:49:49;;;;;;;1.80;1.13;;;23.80;99.90;;;;;;5060510;28;20032;-73
2022/08/27 11:52:31;;;;;;;6.35;0.65;;;23.90;99.90;;;;;;5060316;28;20241;-71
2022/08/27 11:55:27;;;;;;;8.63;1.58;;;24.00;99.90;;;;;;5060330;28;20039;-71
2022/08/27 11:58:23;;;;;;;4.65;1.10;;;24.10;99.90;;;;;;5059525;28;20021;-69
2022/08/27 12:00:51;;;;;;;1.58;0.60;;;24.00;99.90;;;;;;5058852;28;20045;-68
2022/08/27 12:03:20;;;;;;;2.05;0.60;;;24.00;99.90;;;;;;5060403;28;20044;-68
2022/08/27 12:05:53;;;;;;;4.00;0.63;;;23.90;99.90;;;;;;5060123;28;20064;-72
2022/08/27 12:08:21;;;;;;;1.15;0.77;;;23.90;99.90;;;;;;5062639;28;20033;-70
2022/08/27 12:10:57;;;;;;;5.25;0.73;;;24.10;99.90;;;;;;5063464;28;20028;-72
2022/08/27 12:13:55;;;;;;;7.32;1.02;;;24.10;99.90;;;;;;5063208;28;20021;-67
2022/08/27 12:17:01;;;;;;;7.40;0.93;;;24.10;99.90;;;;;;5063609;28;20104;-72
2022/08/27 12:19:45;;;;;;;2.42;0.75;;;24.30;99.90;;;;;;5064182;28;20028;-69
2022/08/27 12:26:24;;;;;;;2.78;0.93;;;24.20;99.90;;;;;;5071678;28;20082;-72
2022/08/27 12:28:54;;;;;;;4.72;0.68;;;24.00;99.90;;;;;;5068484;28;20412;-70
2022/08/27 12:31:22;;;;;;;0.80;0.60;;;24.10;99.90;;;;;;5062952;28;20119;-69
2022/08/27 12:33:52;;;;;;;1.98;0.85;;;24.30;99.90;;;;;;5063605;28;20056;-72
2022/08/27 12:36:27;;;;;;;4.32;0.95;;;24.60;99.90;;;;;;5061919;28;20045;-71
2022/08/27 12:38:55;;;;;;;2.30;0.50;;;24.80;99.90;;;;;;5061557;28;20021;-71
2022/08/27 12:41:31;;;;;;;1.00;0.70;;;24.90;99.90;;;;;;5062892;28;20045;-70
2022/08/27 12:44:09;;;;;;;1.50;0.47;;;24.70;99.90;;;;;;5063445;28;20040;-70
2022/08/27 12:46:58;;;;;;;3.80;0.70;;;24.60;99.90;;;;;;5063756;28;20025;-69
2022/08/27 12:49:36;;;;;;;1.92;0.63;;;24.50;99.90;;;;;;5062413;28;20519;-70
2022/08/27 12:52:25;;;;;;;2.72;0.77;;;24.70;99.90;;;;;;5063777;28;20093;-69
2022/08/27 12:55:09;;;;;;;3.55;0.90;;;24.70;99.90;;;;;;5041609;28;20618;-72
2022/08/27 12:57:49;;;;;;;3.53;0.73;;;24.80;99.90;;;;;;5062767;28;20051;-70
2022/08/27 13:00:20;;;;;;;2.75;0.50;;;24.70;99.90;;;;;;5060119;28;20037;-70
2022/08/27 13:03:10;;;;;;;4.90;0.63;;;24.40;99.90;;;;;;5060609;28;20049;-70
2022/08/27 13:05:42;;;;;;;0.95;0.60;;;24.10;99.90;;;;;;5062811;28;20021;-71
2022/08/27 13:08:30;;;;;;;7.85;1.00;;;24.10;99.90;;;;;;5063229;28;20039;-70
2022/08/27 13:11:16;;;;;;;5.63;1.50;;;23.90;99.90;;;;;;5062885;28;20033;-70
2022/08/27 13:13:42;;;;;;;4.63;0.70;;;23.60;99.90;;;;;;5063149;28;20017;-74
2022/08/27 13:16:08;;;;;;;2.53;0.70;;;23.60;99.90;;;;;;5063096;28;20060;-70
2022/08/27 13:18:36;;;;;;;3.22;0.80;;;23.90;99.90;;;;;;5062795;28;20024;-70